createdAt,value
2022-09-18T00:01:12.387Z,98.41
2022-09-18T00:03:41.966Z,97.40
2022-09-18T00:06:12.482Z,97.45
2022-09-18T00:08:40.379Z,98.43
2022-09-18T00:11:10.085Z,98.52
2022-09-18T00:13:39.026Z,98.65
2022-09-18T00:16:09.394Z,97.70
2022-09-18T00:18:36.879Z,98.61
2022-09-18T00:21:08.062Z,97.00
2022-09-18T00:23:36.176Z,98.37
2022-09-18T00:26:03.950Z,98.06
2022-09-18T00:28:31.662Z,97.68
2022-09-18T00:31:04.573Z,98.46
2022-09-18T00:33:32.481Z,98.58
2022-09-18T00:36:01.721Z,99.48
2022-09-18T00:38:31.828Z,98.71
2022-09-18T00:40:59.677Z,97.14
2022-09-18T00:43:30.184Z,97.03
2022-09-18T00:46:01.517Z,97.98
2022-09-18T00:48:39.938Z,97.96
2022-09-18T00:51:06.935Z,98.80
2022-09-18T00:53:41.820Z,99.14
2022-09-18T00:56:14.656Z,99.50
2022-09-18T00:58:42.781Z,100.00
2022-09-18T01:01:09.981Z,100.00
2022-09-18T01:03:36.869Z,100.00
2022-09-18T01:06:14.769Z,100.00
2022-09-18T01:09:07.571Z,100.00
2022-09-18T01:11:48.126Z,100.00
2022-09-18T01:14:30.518Z,100.00
2022-09-18T01:17:09.834Z,100.00
2022-09-18T01:20:01.975Z,100.00
2022-09-18T01:22:54.106Z,100.00
2022-09-18T01:25:38.460Z,100.00
2022-09-18T01:28:20.752Z,100.00
2022-09-18T01:30:52.401Z,100.00
2022-09-18T01:33:30.828Z,100.00
2022-09-18T01:36:06.437Z,100.00
2022-09-18T01:38:40.301Z,100.00
2022-09-18T01:41:14.404Z,100.00
2022-09-18T01:43:47.095Z,100.00
2022-09-18T01:46:19.020Z,99.79
2022-09-18T01:48:55.453Z,100.00
2022-09-18T01:51:30.834Z,100.00
2022-09-18T01:54:06.694Z,100.00
2022-09-18T01:56:42.049Z,100.00
2022-09-18T01:59:18.805Z,100.00
2022-09-18T02:01:57.452Z,100.00
2022-09-18T02:04:30.393Z,100.00
2022-09-18T02:07:07.466Z,100.00
2022-09-18T02:09:35.421Z,100.00
2022-09-18T02:12:07.560Z,100.00
2022-09-18T02:14:42.557Z,100.00
2022-09-18T02:17:34.875Z,100.00
2022-09-18T02:20:11.530Z,100.00
2022-09-18T02:22:44.431Z,100.00
2022-09-18T02:25:18.506Z,100.00
2022-09-18T02:27:49.123Z,100.00
2022-09-18T02:30:18.024Z,100.00
2022-09-18T02:32:44.841Z,100.00
2022-09-18T02:35:13.490Z,100.00
2022-09-18T02:37:56.680Z,100.00
2022-09-18T02:40:42.486Z,100.00
2022-09-18T02:43:31.026Z,100.00
2022-09-18T02:46:12.932Z,100.00
2022-09-18T02:48:56.511Z,100.00
2022-09-18T02:51:34.716Z,100.00
2022-09-18T02:54:08.259Z,100.00
2022-09-18T02:56:42.469Z,100.00
2022-09-18T02:59:17.747Z,100.00
2022-09-18T03:01:55.156Z,100.00
2022-09-18T03:04:25.607Z,100.00
2022-09-18T03:07:17.871Z,100.00
2022-09-18T03:09:50.990Z,100.00
2022-09-18T03:12:18.040Z,100.00
2022-09-18T03:14:47.943Z,100.00
2022-09-18T03:17:16.191Z,100.00
2022-09-18T03:19:44.878Z,100.00
2022-09-18T03:22:13.533Z,100.00
2022-09-18T03:24:41.804Z,100.00
2022-09-18T03:27:08.556Z,100.00
2022-09-18T03:29:36.070Z,100.00
2022-09-18T03:32:03.794Z,100.00
2022-09-18T03:34:40.009Z,100.00
2022-09-18T03:37:07.237Z,100.00
2022-09-18T03:39:34.572Z,100.00
2022-09-18T03:42:02.663Z,100.00
2022-09-18T03:44:31.739Z,100.00
2022-09-18T03:47:03.463Z,100.00
2022-09-18T03:49:30.955Z,100.00
2022-09-18T03:51:58.990Z,100.00
2022-09-18T03:54:30.477Z,100.00
2022-09-18T03:57:13.214Z,100.00
2022-09-18T03:59:53.411Z,100.00
2022-09-18T04:02:38.884Z,100.00
2022-09-18T04:05:24.934Z,100.00
2022-09-18T04:08:15.920Z,100.00
2022-09-18T04:11:01.237Z,100.00
2022-09-18T04:13:27.993Z,100.00
2022-09-18T04:16:01.897Z,100.00
2022-09-18T04:18:29.381Z,100.00
2022-09-18T04:20:57.435Z,100.00
2022-09-18T04:23:25.643Z,100.00
2022-09-18T04:25:52.741Z,100.00
2022-09-18T04:28:19.696Z,100.00
2022-09-18T04:30:48.381Z,100.00
2022-09-18T04:33:16.227Z,100.00
2022-09-18T04:35:43.503Z,100.00
2022-09-18T04:38:10.865Z,100.00
2022-09-18T04:40:39.212Z,100.00
2022-09-18T04:43:05.977Z,100.00
2022-09-18T04:45:32.763Z,100.00
2022-09-18T04:47:59.722Z,100.00
2022-09-18T04:50:28.113Z,100.00
2022-09-18T04:53:11.634Z,100.00
2022-09-18T04:55:42.881Z,100.00
2022-09-18T04:58:10.299Z,100.00
2022-09-18T05:00:37.541Z,100.00
2022-09-18T05:03:05.006Z,100.00
2022-09-18T05:05:34.663Z,100.00
2022-09-18T05:08:02.821Z,100.00
2022-09-18T05:10:30.547Z,100.00
2022-09-18T05:12:58.806Z,100.00
2022-09-18T05:15:27.509Z,100.00
2022-09-18T05:18:07.730Z,100.00
2022-09-18T05:20:37.662Z,100.00
2022-09-18T05:23:06.977Z,100.00
2022-09-18T05:25:35.853Z,100.00
2022-09-18T05:28:04.787Z,100.00
2022-09-18T05:30:37.908Z,100.00
2022-09-18T05:33:07.665Z,100.00
2022-09-18T05:35:39.138Z,100.00
2022-09-18T05:38:06.513Z,100.00
2022-09-18T05:40:37.521Z,100.00
2022-09-18T05:43:06.389Z,100.00
2022-09-18T05:45:34.976Z,100.00
2022-09-18T05:48:07.453Z,100.00
2022-09-18T05:50:35.710Z,100.00
2022-09-18T05:53:05.422Z,100.00
2022-09-18T05:55:43.714Z,100.00
2022-09-18T05:58:14.575Z,100.00
2022-09-18T06:00:42.356Z,100.00
2022-09-18T06:03:16.110Z,100.00
2022-09-18T06:05:51.650Z,100.00
2022-09-18T06:08:18.898Z,100.00
2022-09-18T06:10:45.655Z,100.00
2022-09-18T06:13:16.381Z,100.00
2022-09-18T06:15:48.878Z,100.00
2022-09-18T06:18:20.773Z,100.00
2022-09-18T06:20:54.147Z,100.00
2022-09-18T06:23:26.826Z,100.00
2022-09-18T06:26:02.115Z,100.00
2022-09-18T06:28:33.130Z,100.00
2022-09-18T06:31:04.437Z,100.00
2022-09-18T06:33:43.839Z,100.00
2022-09-18T06:36:11.360Z,100.00
2022-09-18T06:38:44.935Z,100.00
2022-09-18T06:41:11.851Z,100.00
2022-09-18T06:43:52.276Z,100.00
2022-09-18T06:46:33.688Z,100.00
2022-09-18T06:49:13.589Z,100.00
2022-09-18T06:51:44.107Z,100.00
2022-09-18T06:54:12.284Z,100.00
2022-09-18T06:56:40.789Z,100.00
2022-09-18T06:59:11.350Z,100.00
2022-09-18T07:01:39.087Z,100.00
2022-09-18T07:04:15.672Z,100.00
2022-09-18T07:06:45.756Z,100.00
2022-09-18T07:09:14.026Z,99.31
2022-09-18T07:11:52.751Z,99.64
2022-09-18T07:14:26.126Z,99.33
2022-09-18T07:16:57.022Z,99.92
2022-09-18T07:19:23.855Z,99.30
2022-09-18T07:21:51.838Z,97.96
2022-09-18T07:24:19.190Z,99.65
2022-09-18T07:26:46.094Z,99.62
2022-09-18T07:29:12.978Z,99.29
2022-09-18T07:31:41.659Z,97.84
2022-09-18T07:34:11.804Z,97.79
2022-09-18T07:36:38.723Z,97.33
2022-09-18T07:39:05.551Z,96.56
2022-09-18T07:41:44.767Z,96.75
2022-09-18T07:44:11.987Z,96.25
2022-09-18T07:46:38.855Z,96.99
2022-09-18T07:49:09.381Z,96.39
2022-09-18T07:51:36.547Z,95.61
2022-09-18T07:54:04.725Z,94.78
2022-09-18T07:56:50.722Z,95.11
2022-09-18T07:59:21.057Z,95.04
2022-09-18T08:01:54.288Z,94.58
2022-09-18T08:04:24.888Z,96.05
2022-09-18T08:07:06.213Z,93.96
2022-09-18T08:09:51.120Z,95.36
2022-09-18T08:12:43.886Z,94.52
2022-09-18T08:15:27.486Z,94.59
2022-09-18T08:18:21.436Z,93.17
2022-09-18T08:20:58.648Z,91.57
2022-09-18T08:23:47.098Z,92.59
2022-09-18T08:26:17.672Z,90.75
2022-09-18T08:28:48.641Z,90.75
2022-09-18T08:31:16.198Z,89.87
2022-09-18T08:33:43.680Z,89.88
2022-09-18T08:36:12.418Z,86.37
2022-09-18T08:38:47.323Z,84.68
2022-09-18T08:42:11.857Z,84.50
2022-09-18T08:44:50.635Z,84.35
2022-09-18T08:47:25.262Z,86.77
2022-09-18T08:50:00.816Z,87.66
2022-09-18T08:52:37.368Z,87.81
2022-09-18T08:55:24.257Z,87.69
2022-09-18T08:58:16.927Z,87.70
2022-09-18T09:00:51.053Z,88.53
2022-09-18T09:03:45.935Z,87.32
2022-09-18T09:06:33.863Z,86.96
2022-09-18T09:09:25.891Z,86.04
2022-09-18T09:12:03.291Z,85.73
2022-09-18T09:15:21.549Z,85.77
2022-09-18T09:22:04.718Z,86.55
2022-09-18T09:24:41.560Z,87.07
2022-09-18T09:27:47.890Z,86.73
2022-09-18T09:30:35.420Z,86.41
2022-09-18T09:33:16.433Z,86.14
2022-09-18T09:36:07.966Z,85.68
2022-09-18T09:38:57.388Z,84.81
2022-09-18T09:41:36.829Z,84.76
2022-09-18T09:44:25.364Z,83.49
2022-09-18T09:47:25.224Z,84.28
2022-09-18T09:50:12.947Z,83.05
2022-09-18T09:52:44.855Z,81.69
2022-09-18T09:55:25.216Z,79.62
2022-09-18T09:58:15.388Z,79.47
2022-09-18T10:00:56.760Z,78.24
2022-09-18T10:03:36.527Z,77.48
2022-09-18T10:06:28.938Z,77.10
2022-09-18T10:12:21.200Z,75.69
2022-09-18T10:15:02.929Z,75.64
2022-09-18T10:17:38.505Z,74.05
2022-09-18T10:20:14.047Z,74.92
2022-09-18T10:22:41.389Z,74.81
2022-09-18T10:25:25.497Z,73.26
2022-09-18T10:27:53.080Z,72.03
2022-09-18T10:30:21.618Z,70.22
2022-09-18T10:32:52.747Z,69.57
2022-09-18T10:35:44.886Z,68.83
2022-09-18T10:38:33.704Z,69.69
2022-09-18T10:41:37.064Z,69.78
2022-09-18T10:44:27.538Z,67.77
2022-09-18T10:47:08.272Z,66.14
2022-09-18T10:49:49.330Z,65.29
2022-09-18T10:52:34.064Z,66.54
2022-09-18T10:55:15.920Z,64.85
2022-09-18T10:58:12.374Z,65.21
2022-09-18T11:00:51.974Z,63.51
2022-09-18T11:03:39.435Z,65.08
2022-09-18T11:06:16.151Z,61.51
2022-09-18T11:08:49.364Z,59.38
2022-09-18T11:11:27.639Z,57.34
2022-09-18T11:14:00.875Z,57.81
2022-09-18T11:16:43.764Z,58.99
2022-09-18T11:19:26.382Z,59.85
2022-09-18T11:21:57.859Z,59.34
2022-09-18T11:24:29.195Z,57.54
2022-09-18T11:27:20.842Z,58.23
2022-09-18T11:29:54.944Z,58.33
2022-09-18T11:32:29.364Z,60.39
2022-09-18T11:35:14.240Z,60.49
2022-09-18T11:37:48.725Z,60.66
2022-09-18T11:40:27.611Z,60.44
2022-09-18T11:42:57.084Z,62.03
2022-09-18T11:45:56.770Z,65.04
2022-09-18T11:48:34.291Z,65.80
2022-09-18T11:51:13.528Z,67.17
2022-09-18T11:53:45.872Z,67.01
2022-09-18T11:56:27.515Z,67.37
2022-09-18T11:59:09.509Z,68.05
2022-09-18T12:01:42.823Z,67.65
2022-09-18T12:04:19.118Z,66.19
2022-09-18T12:06:59.046Z,66.46
2022-09-18T12:09:38.823Z,66.46
2022-09-18T12:12:18.635Z,66.26
2022-09-18T12:14:56.831Z,66.23
2022-09-18T12:17:34.556Z,64.42
2022-09-18T12:20:11.663Z,64.31
2022-09-18T12:22:49.828Z,63.61
2022-09-18T12:25:24.422Z,63.61
2022-09-18T12:28:29.846Z,61.90
2022-09-18T12:31:43.150Z,62.15
2022-09-18T12:35:04.094Z,61.23
2022-09-18T12:38:19.911Z,60.86
2022-09-18T12:41:17.849Z,60.40
2022-09-18T12:44:52.714Z,62.03
2022-09-18T12:47:50.230Z,61.19
2022-09-18T12:54:17.025Z,60.79
2022-09-18T12:57:08.447Z,60.69
2022-09-18T12:59:57.887Z,61.68
2022-09-18T13:02:49.171Z,62.33
2022-09-18T13:05:27.224Z,62.87
2022-09-18T13:08:03.630Z,63.73
2022-09-18T13:10:39.660Z,63.61
2022-09-18T13:13:15.909Z,63.32
2022-09-18T13:15:51.058Z,62.54
2022-09-18T13:18:32.448Z,61.02
2022-09-18T13:21:05.424Z,62.08
2022-09-18T13:23:39.211Z,62.32
2022-09-18T13:26:14.348Z,62.83
2022-09-18T13:28:43.529Z,62.75
2022-09-18T13:31:25.648Z,64.22
2022-09-18T13:33:59.508Z,63.91
2022-09-18T13:36:32.340Z,64.42
2022-09-18T13:39:04.233Z,64.74
2022-09-18T13:41:46.210Z,65.13
2022-09-18T13:44:20.423Z,65.22
2022-09-18T13:46:50.697Z,66.02
2022-09-18T13:49:26.183Z,64.78
2022-09-18T13:51:53.164Z,65.10
2022-09-18T13:54:27.717Z,64.75
2022-09-18T13:57:32.482Z,65.20
2022-09-18T14:00:00.710Z,65.39
2022-09-18T14:02:40.672Z,65.27
2022-09-18T14:05:31.817Z,65.77
2022-09-18T14:08:09.733Z,65.69
2022-09-18T14:11:14.455Z,66.12
2022-09-18T14:13:53.619Z,66.57
2022-09-18T14:16:29.683Z,65.96
2022-09-18T14:19:26.468Z,66.18
2022-09-18T14:21:54.192Z,66.06
2022-09-18T14:24:58.474Z,66.69
2022-09-18T14:27:42.647Z,66.35
2022-09-18T14:30:19.829Z,66.47
2022-09-18T14:33:17.675Z,65.93
2022-09-18T14:35:54.499Z,65.76
2022-09-18T14:38:32.126Z,65.12
2022-09-18T14:41:12.166Z,64.30
2022-09-18T14:43:47.255Z,64.10
2022-09-18T14:46:23.219Z,63.89
2022-09-18T14:48:54.815Z,63.91
2022-09-18T14:51:25.870Z,63.22
2022-09-18T14:53:55.832Z,63.00
2022-09-18T14:56:32.762Z,64.13
2022-09-18T14:59:05.627Z,63.36
2022-09-18T15:01:39.338Z,64.16
2022-09-18T15:04:25.705Z,63.30
2022-09-18T15:10:52.298Z,62.72
2022-09-18T15:13:21.920Z,62.63
2022-09-18T15:15:59.512Z,62.95
2022-09-18T15:18:29.618Z,63.76
2022-09-18T15:20:59.733Z,63.99
2022-09-18T15:23:37.751Z,64.57
2022-09-18T15:26:12.642Z,64.33
2022-09-18T15:28:44.215Z,64.57
2022-09-18T15:31:14.756Z,63.82
2022-09-18T15:33:57.624Z,65.20
2022-09-18T15:37:18.640Z,65.86
2022-09-18T15:40:03.968Z,65.87
2022-09-18T15:42:35.228Z,66.17
2022-09-18T15:45:21.502Z,66.14
2022-09-18T15:47:53.292Z,66.26
2022-09-18T15:50:41.380Z,66.58
2022-09-18T15:53:24.348Z,67.10
2022-09-18T15:56:07.137Z,66.86
2022-09-18T15:58:51.965Z,66.40
2022-09-18T16:01:27.518Z,66.73
2022-09-18T16:04:19.693Z,66.64
2022-09-18T16:06:59.937Z,66.49
2022-09-18T16:09:40.930Z,66.75
2022-09-18T16:12:42.226Z,67.14
2022-09-18T16:15:23.442Z,66.87
2022-09-18T16:18:28.705Z,66.51
2022-09-18T16:21:02.936Z,66.18
2022-09-18T16:23:36.198Z,66.55
2022-09-18T16:26:11.465Z,66.47
2022-09-18T16:28:43.725Z,65.99
2022-09-18T16:31:13.442Z,66.16
2022-09-18T16:33:51.636Z,66.90
2022-09-18T16:36:28.581Z,66.19
2022-09-18T16:38:59.495Z,65.80
2022-09-18T16:41:28.282Z,65.61
2022-09-18T16:43:55.449Z,66.23
2022-09-18T16:46:29.988Z,65.88
2022-09-18T16:48:57.617Z,66.77
2022-09-18T16:51:24.506Z,67.04
2022-09-18T16:53:51.525Z,66.05
2022-09-18T16:56:26.650Z,66.94
2022-09-18T16:58:57.320Z,66.00
2022-09-18T17:01:24.678Z,65.79
2022-09-18T17:03:51.984Z,65.62
2022-09-18T17:06:19.104Z,66.08
2022-09-18T17:08:46.905Z,66.33
2022-09-18T17:11:13.845Z,66.41
2022-09-18T17:13:42.050Z,66.63
2022-09-18T17:16:09.092Z,66.75
2022-09-18T17:18:36.084Z,65.95
2022-09-18T17:21:04.866Z,66.12
2022-09-18T17:23:32.433Z,67.78
2022-09-18T17:26:05.330Z,67.35
2022-09-18T17:28:32.238Z,66.80
2022-09-18T17:31:06.505Z,66.81
2022-09-18T17:33:33.631Z,66.84
2022-09-18T17:36:05.770Z,67.46
2022-09-18T17:38:36.413Z,68.34
2022-09-18T17:41:07.426Z,68.08
2022-09-18T17:43:34.944Z,68.52
2022-09-18T17:46:06.301Z,69.82
2022-09-18T17:48:33.890Z,69.61
2022-09-18T17:51:04.104Z,69.47
2022-09-18T17:54:03.171Z,70.55
2022-09-18T17:56:32.199Z,71.12
2022-09-18T17:59:05.997Z,72.44
2022-09-18T18:01:38.813Z,73.62
2022-09-18T18:04:07.336Z,75.30
2022-09-18T18:06:35.511Z,76.37
2022-09-18T18:09:02.475Z,77.98
2022-09-18T18:11:29.692Z,78.41
2022-09-18T18:13:56.872Z,79.87
2022-09-18T18:16:27.664Z,80.19
2022-09-18T18:18:59.474Z,80.51
2022-09-18T18:21:29.862Z,82.41
2022-09-18T18:24:02.889Z,83.87
2022-09-18T18:26:30.585Z,85.28
2022-09-18T18:28:58.071Z,88.61
2022-09-18T18:31:27.070Z,90.55
2022-09-18T18:34:08.488Z,90.79
2022-09-18T18:36:39.831Z,91.30
2022-09-18T18:40:30.522Z,92.27
2022-09-18T18:43:44.046Z,91.89
2022-09-18T18:46:14.347Z,91.89
2022-09-18T18:48:43.740Z,90.42
2022-09-18T18:51:16.742Z,91.28
2022-09-18T18:53:44.377Z,91.45
2022-09-18T18:56:15.609Z,91.77
2022-09-18T18:58:47.646Z,92.34
2022-09-18T19:01:20.722Z,91.91
2022-09-18T19:04:05.342Z,92.02
2022-09-18T19:06:36.614Z,94.43
2022-09-18T19:09:19.287Z,94.70
2022-09-18T19:11:54.274Z,95.27
2022-09-18T19:14:28.343Z,96.38
2022-09-18T19:16:56.726Z,97.84
2022-09-18T19:19:35.701Z,98.94
2022-09-18T19:22:09.748Z,99.02
2022-09-18T19:37:28.281Z,94.88
2022-09-18T19:39:57.354Z,93.55
2022-09-18T19:42:50.412Z,91.20
2022-09-18T19:45:28.118Z,90.63
2022-09-18T19:47:56.289Z,90.94
2022-09-18T19:50:30.950Z,90.98
2022-09-18T19:53:03.792Z,90.83
2022-09-18T19:55:50.727Z,89.38
2022-09-18T19:58:34.753Z,89.73
2022-09-18T20:01:24.298Z,91.36
2022-09-18T20:29:50.749Z,98.10
2022-09-18T20:32:17.865Z,96.93
2022-09-18T20:34:47.769Z,98.28
2022-09-18T20:37:15.078Z,98.52
2022-09-18T20:39:41.921Z,98.88
2022-09-18T20:42:09.089Z,98.26
2022-09-18T20:44:36.031Z,98.82
2022-09-18T20:47:05.554Z,97.92
2022-09-18T20:49:32.779Z,98.42
2022-09-18T20:52:00.257Z,98.75
2022-09-18T20:54:27.005Z,96.69
2022-09-18T20:56:53.982Z,98.87
2022-09-18T20:59:21.020Z,96.31
2022-09-18T21:01:48.626Z,97.45
2022-09-18T21:04:20.529Z,97.38
2022-09-18T21:06:51.317Z,97.20
2022-09-18T21:09:18.240Z,97.24
2022-09-18T21:11:45.016Z,96.67
2022-09-18T21:14:14.338Z,97.58
2022-09-18T21:16:41.440Z,98.13
2022-09-18T21:19:11.330Z,96.97
2022-09-18T21:21:40.902Z,97.55
2022-09-18T21:24:08.319Z,98.27
2022-09-18T21:26:37.953Z,99.33
2022-09-18T21:29:11.496Z,99.47
2022-09-18T21:31:40.846Z,99.25
2022-09-18T21:34:08.641Z,98.63
2022-09-18T21:36:35.509Z,99.99
2022-09-18T21:39:05.053Z,98.70
2022-09-18T21:41:32.919Z,100.00
2022-09-18T21:43:59.654Z,100.00
2022-09-18T21:46:26.828Z,100.00
2022-09-18T21:48:53.585Z,99.46
2022-09-18T21:51:20.994Z,100.00
2022-09-18T21:53:47.958Z,100.00
2022-09-18T21:56:20.153Z,100.00
2022-09-18T21:58:47.859Z,100.00
2022-09-18T22:01:17.791Z,100.00
2022-09-18T22:03:47.894Z,100.00
2022-09-18T22:06:14.663Z,100.00
2022-09-18T22:08:41.512Z,100.00
2022-09-18T22:11:08.246Z,100.00
2022-09-18T22:13:36.483Z,100.00
2022-09-18T22:16:03.260Z,100.00
2022-09-18T22:18:30.142Z,100.00
2022-09-18T22:20:56.830Z,100.00
2022-09-18T22:23:23.749Z,100.00
2022-09-18T22:25:50.763Z,100.00
2022-09-18T22:28:18.174Z,100.00
2022-09-18T22:30:46.333Z,100.00
2022-09-18T22:33:13.763Z,100.00
2022-09-18T22:35:40.549Z,100.00
2022-09-18T22:38:07.514Z,100.00
2022-09-18T22:40:34.299Z,100.00
2022-09-18T22:43:01.303Z,100.00
2022-09-18T22:45:28.094Z,98.85
2022-09-18T22:47:56.353Z,100.00
2022-09-18T22:50:23.646Z,99.32
2022-09-18T22:52:50.399Z,96.67
2022-09-18T22:55:17.253Z,99.16
2022-09-18T22:57:44.011Z,99.88
2022-09-18T23:00:16.500Z,100.00
2022-09-18T23:02:43.434Z,99.97
2022-09-18T23:05:11.570Z,100.00
2022-09-18T23:07:38.991Z,100.00
2022-09-18T23:10:07.650Z,100.00
2022-09-18T23:12:34.654Z,100.00
2022-09-18T23:15:03.746Z,100.00
2022-09-18T23:17:30.710Z,100.00
2022-09-18T23:19:57.413Z,100.00
2022-09-18T23:22:25.754Z,100.00
2022-09-18T23:24:52.501Z,100.00
2022-09-18T23:27:19.305Z,100.00
2022-09-18T23:29:46.049Z,100.00
2022-09-18T23:32:12.742Z,100.00
2022-09-18T23:34:40.119Z,100.00
2022-09-18T23:37:06.833Z,100.00
2022-09-18T23:39:35.117Z,100.00
2022-09-18T23:42:03.953Z,100.00
2022-09-18T23:44:31.304Z,100.00
2022-09-18T23:46:59.097Z,100.00
2022-09-18T23:49:25.992Z,100.00
2022-09-18T23:51:54.414Z,100.00
2022-09-18T23:54:24.371Z,100.00
2022-09-18T23:56:55.071Z,100.00
2022-09-18T23:59:25.232Z,100.00
